createdAt,value
2019-02-28T00:00:26.444Z,1009.58
2019-02-28T00:01:26.435Z,1009.61
2019-02-28T00:02:26.470Z,1009.54
2019-02-28T00:03:27.243Z,1009.57
2019-02-28T00:04:31.917Z,1009.53
2019-02-28T00:05:27.388Z,1009.47
2019-02-28T00:06:26.378Z,1009.51
2019-02-28T00:07:26.369Z,1009.48
2019-02-28T00:08:26.402Z,1009.47
2019-02-28T00:09:26.465Z,1009.44
2019-02-28T00:10:28.091Z,1009.45
2019-02-28T00:11:26.352Z,1009.46
2019-02-28T00:12:26.306Z,1009.43
2019-02-28T00:13:26.389Z,1009.43
2019-02-28T00:14:27.657Z,1009.47
2019-02-28T00:15:26.274Z,1009.39
2019-02-28T00:16:26.287Z,1009.40
2019-02-28T00:17:26.258Z,1009.35
2019-02-28T00:18:26.245Z,1009.36
2019-02-28T00:19:26.264Z,1009.30
2019-02-28T00:20:26.222Z,1009.34
2019-02-28T00:21:26.208Z,1009.29
2019-02-28T00:22:26.201Z,1009.29
2019-02-28T00:23:26.244Z,1009.31
2019-02-28T00:24:27.179Z,1009.28
2019-02-28T00:25:26.169Z,1009.29
2019-02-28T00:26:26.157Z,1009.30
2019-02-28T00:27:26.155Z,1009.25
2019-02-28T00:28:26.586Z,1009.26
2019-02-28T00:29:26.151Z,1009.19
2019-02-28T00:30:26.121Z,1009.17
2019-02-28T00:31:26.106Z,1009.13
2019-02-28T00:32:26.089Z,1009.10
2019-02-28T00:33:26.081Z,1009.06
2019-02-28T00:34:26.094Z,1009.02
2019-02-28T00:35:26.116Z,1009.07
2019-02-28T00:36:26.048Z,1009.05
2019-02-28T00:37:26.036Z,1009.05
2019-02-28T00:38:29.486Z,1009.03
2019-02-28T00:39:26.014Z,1009.01
2019-02-28T00:40:26.012Z,1009.00
2019-02-28T00:41:26.019Z,1008.95
2019-02-28T00:42:25.980Z,1008.91
2019-02-28T00:43:25.974Z,1008.88
2019-02-28T00:44:30.455Z,1008.90
2019-02-28T00:45:26.953Z,1008.88
2019-02-28T00:46:25.985Z,1008.86
2019-02-28T00:47:25.928Z,1008.82
2019-02-28T00:48:25.915Z,1008.85
2019-02-28T00:49:25.908Z,1008.84
2019-02-28T00:50:27.603Z,1008.79
2019-02-28T00:51:25.926Z,1008.81
2019-02-28T00:52:25.866Z,1008.78
2019-02-28T00:53:25.858Z,1008.74
2019-02-28T00:54:25.856Z,1008.74
2019-02-28T00:55:25.837Z,1008.72
2019-02-28T00:56:25.828Z,1008.69
2019-02-28T00:57:25.872Z,1008.65
2019-02-28T00:58:28.672Z,1008.67
2019-02-28T00:59:25.789Z,1008.59
2019-02-28T01:00:25.785Z,1008.54
2019-02-28T01:01:25.770Z,1008.56
2019-02-28T01:02:25.759Z,1008.49
2019-02-28T01:03:27.256Z,1008.53
2019-02-28T01:04:25.737Z,1008.51
2019-02-28T01:05:25.721Z,1008.50
2019-02-28T01:06:25.710Z,1008.55
2019-02-28T01:07:25.700Z,1008.49
2019-02-28T01:08:25.694Z,1008.53
2019-02-28T01:09:27.157Z,1008.55
2019-02-28T01:10:25.672Z,1008.53
2019-02-28T01:11:25.654Z,1008.46
2019-02-28T01:12:25.659Z,1008.47
2019-02-28T01:13:28.101Z,1008.47
2019-02-28T01:14:25.678Z,1008.42
2019-02-28T01:15:25.616Z,1008.43
2019-02-28T01:16:25.604Z,1008.42
2019-02-28T01:17:26.708Z,1008.42
2019-02-28T01:18:25.578Z,1008.36
2019-02-28T01:19:25.600Z,1008.38
2019-02-28T01:20:25.560Z,1008.33
2019-02-28T01:21:25.555Z,1008.26
2019-02-28T01:22:26.741Z,1008.31
2019-02-28T01:23:25.527Z,1008.32
2019-02-28T01:24:25.576Z,1008.26
2019-02-28T01:25:25.534Z,1008.22
2019-02-28T01:26:25.522Z,1008.17
2019-02-28T01:27:25.477Z,1008.15
2019-02-28T01:28:27.060Z,1008.13
2019-02-28T01:29:25.455Z,1008.11
2019-02-28T01:30:25.462Z,1008.08
2019-02-28T01:31:25.466Z,1008.09
2019-02-28T01:32:25.422Z,1008.05
2019-02-28T01:33:25.717Z,1008.01
2019-02-28T01:34:25.409Z,1008.07
2019-02-28T01:35:25.424Z,1007.99
2019-02-28T01:36:25.402Z,1007.99
2019-02-28T01:37:25.368Z,1008.03
2019-02-28T01:38:25.367Z,1007.99
2019-02-28T01:39:25.358Z,1007.99
2019-02-28T01:40:25.337Z,1007.98
2019-02-28T01:41:25.413Z,1007.97
2019-02-28T01:42:25.321Z,1007.97
2019-02-28T01:43:28.925Z,1007.90
2019-02-28T01:44:25.292Z,1007.95
2019-02-28T01:45:25.279Z,1007.90
2019-02-28T01:46:25.274Z,1007.94
2019-02-28T01:47:25.291Z,1007.94
2019-02-28T01:48:25.248Z,1007.87
2019-02-28T01:49:26.884Z,1007.90
2019-02-28T01:50:25.226Z,1007.90
2019-02-28T01:51:25.248Z,1007.87
2019-02-28T01:52:25.238Z,1007.89
2019-02-28T01:53:25.192Z,1007.87
2019-02-28T01:54:27.719Z,1007.87
2019-02-28T01:55:25.172Z,1007.83
2019-02-28T01:56:25.209Z,1007.82
2019-02-28T01:57:25.149Z,1007.80
2019-02-28T01:58:25.143Z,1007.82
2019-02-28T01:59:25.132Z,1007.80
2019-02-28T02:00:25.121Z,1007.77
2019-02-28T02:01:25.152Z,1007.76
2019-02-28T02:02:25.097Z,1007.68
2019-02-28T02:03:25.089Z,1007.68
2019-02-28T02:04:25.071Z,1007.71
2019-02-28T02:05:25.059Z,1007.65
2019-02-28T02:06:25.728Z,1007.60
2019-02-28T02:07:25.055Z,1007.63
2019-02-28T02:08:25.029Z,1007.59
2019-02-28T02:09:25.024Z,1007.56
2019-02-28T02:10:25.010Z,1007.60
2019-02-28T02:11:26.666Z,1007.59
2019-02-28T02:12:25.035Z,1007.59
2019-02-28T02:13:24.979Z,1007.61
2019-02-28T02:14:24.972Z,1007.59
2019-02-28T02:15:25.015Z,1007.56
2019-02-28T02:16:27.758Z,1007.55
2019-02-28T02:17:24.935Z,1007.52
2019-02-28T02:18:24.950Z,1007.55
2019-02-28T02:19:24.913Z,1007.60
2019-02-28T02:20:26.245Z,1007.61
2019-02-28T02:21:24.917Z,1007.62
2019-02-28T02:22:24.879Z,1007.63
2019-02-28T02:23:24.869Z,1007.61
2019-02-28T02:24:27.761Z,1007.65
2019-02-28T02:25:24.846Z,1007.59
2019-02-28T02:26:24.877Z,1007.54
2019-02-28T02:27:24.827Z,1007.53
2019-02-28T02:28:27.098Z,1007.55
2019-02-28T02:29:24.806Z,1007.49
2019-02-28T02:30:24.794Z,1007.55
2019-02-28T02:31:28.915Z,1007.48
2019-02-28T02:32:24.762Z,1007.48
2019-02-28T02:33:24.755Z,1007.53
2019-02-28T02:34:28.439Z,1007.47
2019-02-28T02:35:24.738Z,1007.50
2019-02-28T02:36:24.724Z,1007.49
2019-02-28T02:37:26.444Z,1007.46
2019-02-28T02:38:25.696Z,1007.43
2019-02-28T02:39:24.697Z,1007.38
2019-02-28T02:40:24.739Z,1007.42
2019-02-28T02:41:24.669Z,1007.36
2019-02-28T02:42:24.654Z,1007.40
2019-02-28T02:43:24.653Z,1007.39
2019-02-28T02:44:30.705Z,1007.34
2019-02-28T02:45:25.651Z,1007.26
2019-02-28T02:46:24.611Z,1007.30
2019-02-28T02:47:31.398Z,1007.23
2019-02-28T02:48:25.591Z,1007.20
2019-02-28T02:49:24.583Z,1007.19
2019-02-28T02:50:24.598Z,1007.20
2019-02-28T02:51:24.587Z,1007.19
2019-02-28T02:52:29.940Z,1007.20
2019-02-28T02:53:25.532Z,1007.17
2019-02-28T02:54:24.526Z,1007.14
2019-02-28T02:55:28.211Z,1007.08
2019-02-28T02:56:24.531Z,1007.01
2019-02-28T02:57:24.493Z,1007.03
2019-02-28T02:58:27.813Z,1007.05
2019-02-28T02:59:24.470Z,1007.03
2019-02-28T03:00:24.455Z,1006.99
2019-02-28T03:01:24.670Z,1006.94
2019-02-28T03:02:24.522Z,1006.96
2019-02-28T03:03:24.425Z,1006.93
2019-02-28T03:04:24.418Z,1006.95
2019-02-28T03:05:24.405Z,1006.98
2019-02-28T03:06:24.389Z,1006.93
2019-02-28T03:07:24.986Z,1006.98
2019-02-28T03:08:24.400Z,1006.94
2019-02-28T03:09:24.360Z,1006.96
2019-02-28T03:10:24.348Z,1006.91
2019-02-28T03:11:25.884Z,1006.93
2019-02-28T03:12:24.349Z,1006.88
2019-02-28T03:13:24.347Z,1006.91
2019-02-28T03:14:24.305Z,1006.91
2019-02-28T03:15:27.033Z,1006.93
2019-02-28T03:16:24.279Z,1006.88
2019-02-28T03:17:24.277Z,1006.85
2019-02-28T03:18:24.322Z,1006.86
2019-02-28T03:19:24.245Z,1006.89
2019-02-28T03:20:24.243Z,1006.83
2019-02-28T03:21:24.222Z,1006.87
2019-02-28T03:22:28.066Z,1006.82
2019-02-28T03:23:25.230Z,1006.83
2019-02-28T03:24:24.195Z,1006.82
2019-02-28T03:25:27.753Z,1006.82
2019-02-28T03:26:24.174Z,1006.81
2019-02-28T03:27:24.169Z,1006.80
2019-02-28T03:28:24.162Z,1006.85
2019-02-28T03:29:24.168Z,1006.88
2019-02-28T03:30:31.803Z,1006.78
2019-02-28T03:31:25.115Z,1006.83
2019-02-28T03:32:24.129Z,1006.85
2019-02-28T03:33:28.330Z,1006.88
2019-02-28T03:34:24.115Z,1006.81
2019-02-28T03:35:24.081Z,1006.78
2019-02-28T03:36:24.055Z,1006.85
2019-02-28T03:37:24.052Z,1006.86
2019-02-28T03:38:24.034Z,1006.78
2019-02-28T03:39:25.640Z,1006.81
2019-02-28T03:40:24.017Z,1006.84
2019-02-28T03:41:24.002Z,1006.76
2019-02-28T03:42:28.562Z,1006.76
2019-02-28T03:43:24.983Z,1006.70
2019-02-28T03:44:23.978Z,1006.65
2019-02-28T03:45:23.991Z,1006.74
2019-02-28T03:46:23.959Z,1006.68
2019-02-28T03:47:24.202Z,1006.68
2019-02-28T03:48:23.928Z,1006.68
2019-02-28T03:49:23.919Z,1006.64
2019-02-28T03:50:23.999Z,1006.69
2019-02-28T03:51:28.407Z,1006.66
2019-02-28T03:52:24.880Z,1006.65
2019-02-28T03:53:23.887Z,1006.67
2019-02-28T03:54:23.864Z,1006.67
2019-02-28T03:55:23.853Z,1006.67
2019-02-28T03:56:23.870Z,1006.61
2019-02-28T03:57:27.987Z,1006.59
2019-02-28T03:58:24.844Z,1006.60
2019-02-28T03:59:23.817Z,1006.58
2019-02-28T04:00:23.799Z,1006.60
2019-02-28T04:01:23.848Z,1006.59
2019-02-28T04:02:23.775Z,1006.57
2019-02-28T04:03:23.772Z,1006.52
2019-02-28T04:04:23.756Z,1006.50
2019-02-28T04:05:28.033Z,1006.51
2019-02-28T04:06:23.735Z,1006.52
2019-02-28T04:07:23.764Z,1006.51
2019-02-28T04:08:29.311Z,1006.58
2019-02-28T04:09:24.694Z,1006.55
2019-02-28T04:10:23.683Z,1006.53
2019-02-28T04:11:30.496Z,1006.49
2019-02-28T04:12:24.693Z,1006.43
2019-02-28T04:13:23.652Z,1006.46
2019-02-28T04:14:23.644Z,1006.49
2019-02-28T04:15:23.629Z,1006.52
2019-02-28T04:16:23.618Z,1006.48
2019-02-28T04:17:30.044Z,1006.51
2019-02-28T04:18:24.604Z,1006.49
2019-02-28T04:19:23.594Z,1006.50
2019-02-28T04:20:23.575Z,1006.41
2019-02-28T04:21:23.573Z,1006.43
2019-02-28T04:22:23.978Z,1006.41
2019-02-28T04:23:23.577Z,1006.39
2019-02-28T04:24:23.535Z,1006.37
2019-02-28T04:25:24.485Z,1006.34
2019-02-28T04:26:23.509Z,1006.27
2019-02-28T04:27:23.500Z,1006.34
2019-02-28T04:28:23.554Z,1006.34
2019-02-28T04:29:30.056Z,1006.28
2019-02-28T04:30:24.464Z,1006.30
2019-02-28T04:31:23.466Z,1006.29
2019-02-28T04:32:27.569Z,1006.29
2019-02-28T04:33:23.433Z,1006.31
2019-02-28T04:34:23.456Z,1006.29
2019-02-28T04:35:25.242Z,1006.28
2019-02-28T04:36:23.400Z,1006.27
2019-02-28T04:37:23.430Z,1006.23
2019-02-28T04:38:23.377Z,1006.22
2019-02-28T04:39:23.649Z,1006.18
2019-02-28T04:40:24.062Z,1006.16
2019-02-28T04:41:23.345Z,1006.14
2019-02-28T04:42:23.340Z,1006.12
2019-02-28T04:43:23.326Z,1006.11
2019-02-28T04:44:23.335Z,1006.07
2019-02-28T04:45:26.228Z,1006.06
2019-02-28T04:46:23.291Z,1006.03
2019-02-28T04:47:23.279Z,1006.01
2019-02-28T04:48:23.277Z,1006.01
2019-02-28T04:49:23.262Z,1005.99
2019-02-28T04:50:23.283Z,1005.96
2019-02-28T04:51:23.235Z,1005.98
2019-02-28T04:52:23.226Z,1005.97
2019-02-28T04:53:23.217Z,1005.92
2019-02-28T04:54:24.558Z,1005.91
2019-02-28T04:55:23.226Z,1005.85
2019-02-28T04:56:23.188Z,1005.87
2019-02-28T04:57:23.173Z,1005.88
2019-02-28T04:58:25.293Z,1005.91
2019-02-28T04:59:23.155Z,1005.92
2019-02-28T05:00:23.180Z,1005.88
2019-02-28T05:01:23.162Z,1005.88
2019-02-28T05:02:23.121Z,1005.94
2019-02-28T05:03:27.893Z,1005.88
2019-02-28T05:04:24.095Z,1005.90
2019-02-28T05:05:23.091Z,1005.89
2019-02-28T05:06:23.074Z,1005.89
2019-02-28T05:07:23.096Z,1005.81
2019-02-28T05:08:23.054Z,1005.80
2019-02-28T05:09:23.045Z,1005.80
2019-02-28T05:10:23.112Z,1005.78
2019-02-28T05:11:23.024Z,1005.82
2019-02-28T05:12:23.013Z,1005.80
2019-02-28T05:13:23.063Z,1005.81
2019-02-28T05:14:23.815Z,1005.75
2019-02-28T05:15:22.981Z,1005.78
2019-02-28T05:16:22.963Z,1005.77
2019-02-28T05:17:22.985Z,1005.80
2019-02-28T05:18:22.946Z,1005.79
2019-02-28T05:19:22.965Z,1005.78
2019-02-28T05:20:22.923Z,1005.79
2019-02-28T05:21:22.915Z,1005.81
2019-02-28T05:22:24.441Z,1005.83
2019-02-28T05:23:22.891Z,1005.84
2019-02-28T05:24:22.950Z,1005.92
2019-02-28T05:25:22.865Z,1005.93
2019-02-28T05:26:23.431Z,1005.89
2019-02-28T05:27:24.460Z,1005.88
2019-02-28T05:28:22.838Z,1005.89
2019-02-28T05:29:22.821Z,1005.85
2019-02-28T05:30:22.875Z,1005.83
2019-02-28T05:31:24.129Z,1005.82
2019-02-28T05:32:22.788Z,1005.85
2019-02-28T05:33:22.783Z,1005.79
2019-02-28T05:34:22.774Z,1005.78
2019-02-28T05:35:26.609Z,1005.82
2019-02-28T05:36:22.798Z,1005.81
2019-02-28T05:37:22.741Z,1005.83
2019-02-28T05:38:22.753Z,1005.78
2019-02-28T05:39:22.719Z,1005.82
2019-02-28T05:40:22.753Z,1005.77
2019-02-28T05:41:22.696Z,1005.79
2019-02-28T05:42:23.360Z,1005.75
2019-02-28T05:43:22.674Z,1005.74
2019-02-28T05:44:22.658Z,1005.69
2019-02-28T05:45:22.694Z,1005.68
2019-02-28T05:46:23.762Z,1005.63
2019-02-28T05:47:22.633Z,1005.62
2019-02-28T05:48:22.615Z,1005.58
2019-02-28T05:49:22.613Z,1005.63
2019-02-28T05:50:22.593Z,1005.54
2019-02-28T05:51:24.864Z,1005.55
2019-02-28T05:52:22.572Z,1005.55
2019-02-28T05:53:22.561Z,1005.53
2019-02-28T05:54:22.556Z,1005.57
2019-02-28T05:55:25.664Z,1005.54
2019-02-28T05:56:22.548Z,1005.57
2019-02-28T05:57:22.521Z,1005.60
2019-02-28T05:58:22.507Z,1005.54
2019-02-28T05:59:26.130Z,1005.55
2019-02-28T06:00:22.490Z,1005.57
2019-02-28T06:01:22.509Z,1005.53
2019-02-28T06:02:23.566Z,1005.52
2019-02-28T06:03:22.452Z,1005.53
2019-02-28T06:04:22.441Z,1005.59
2019-02-28T06:05:22.430Z,1005.57
2019-02-28T06:06:22.426Z,1005.59
2019-02-28T06:07:22.412Z,1005.55
2019-02-28T06:08:22.430Z,1005.56
2019-02-28T06:09:22.405Z,1005.61
2019-02-28T06:10:24.646Z,1005.58
2019-02-28T06:11:22.367Z,1005.63
2019-02-28T06:12:22.360Z,1005.69
2019-02-28T06:13:22.380Z,1005.66
2019-02-28T06:14:26.662Z,1005.69
2019-02-28T06:15:23.324Z,1005.70
2019-02-28T06:16:22.310Z,1005.76
2019-02-28T06:17:22.299Z,1005.74
2019-02-28T06:18:22.297Z,1005.72
2019-02-28T06:19:22.340Z,1005.79
2019-02-28T06:20:22.274Z,1005.76
2019-02-28T06:21:23.467Z,1005.85
2019-02-28T06:22:22.243Z,1005.89
2019-02-28T06:23:22.238Z,1005.87
2019-02-28T06:24:22.227Z,1005.93
2019-02-28T06:25:24.902Z,1005.93
2019-02-28T06:26:22.200Z,1005.90
2019-02-28T06:27:24.203Z,1005.89
2019-02-28T06:28:22.182Z,1005.93
2019-02-28T06:29:22.171Z,1005.91
2019-02-28T06:30:22.204Z,1005.94
2019-02-28T06:31:22.176Z,1005.93
2019-02-28T06:32:23.608Z,1005.95
2019-02-28T06:33:22.130Z,1005.97
2019-02-28T06:34:22.113Z,1005.93
2019-02-28T06:35:22.120Z,1005.90
2019-02-28T06:36:22.121Z,1005.86
2019-02-28T06:37:23.978Z,1005.86
2019-02-28T06:38:22.073Z,1005.81
2019-02-28T06:39:22.077Z,1005.84
2019-02-28T06:40:22.045Z,1005.85
2019-02-28T06:41:22.088Z,1005.87
2019-02-28T06:42:22.023Z,1005.88
2019-02-28T06:43:22.017Z,1005.89
2019-02-28T06:44:24.225Z,1005.92
2019-02-28T06:45:21.989Z,1005.96
2019-02-28T06:46:21.979Z,1005.91
2019-02-28T06:47:21.987Z,1005.91
2019-02-28T06:48:25.785Z,1005.90
2019-02-28T06:49:21.950Z,1005.91
2019-02-28T06:50:21.941Z,1005.91
2019-02-28T06:51:21.923Z,1005.86
2019-02-28T06:52:22.264Z,1005.86
2019-02-28T06:53:21.909Z,1005.87
2019-02-28T06:54:21.981Z,1005.90
2019-02-28T06:55:21.886Z,1005.95
2019-02-28T06:56:23.101Z,1006.02
2019-02-28T06:57:21.866Z,1006.02
2019-02-28T06:58:21.848Z,1006.02
2019-02-28T06:59:21.839Z,1006.02
2019-02-28T07:00:21.845Z,1006.02
2019-02-28T07:01:22.634Z,1005.90
2019-02-28T07:02:21.835Z,1005.89
2019-02-28T07:03:21.826Z,1005.91
2019-02-28T07:04:21.788Z,1005.83
2019-02-28T07:05:25.886Z,1005.81
2019-02-28T07:06:21.766Z,1005.79
2019-02-28T07:07:21.754Z,1005.72
2019-02-28T07:08:24.743Z,1005.72
2019-02-28T07:09:22.794Z,1005.72
2019-02-28T07:10:21.717Z,1005.65
2019-02-28T07:11:21.710Z,1005.65
2019-02-28T07:12:21.700Z,1005.63
2019-02-28T07:13:21.691Z,1005.68
2019-02-28T07:14:21.673Z,1005.68
2019-02-28T07:15:24.726Z,1005.57
2019-02-28T07:16:21.653Z,1005.50
2019-02-28T07:17:21.641Z,1005.55
2019-02-28T07:18:21.635Z,1005.55
2019-02-28T07:19:21.705Z,1005.45
2019-02-28T07:20:21.612Z,1005.46
2019-02-28T07:21:21.604Z,1005.50
2019-02-28T07:22:21.585Z,1005.53
2019-02-28T07:23:22.284Z,1005.51
2019-02-28T07:24:21.571Z,1005.61
2019-02-28T07:25:21.567Z,1005.57
2019-02-28T07:26:21.595Z,1005.63
2019-02-28T07:27:23.338Z,1005.60
2019-02-28T07:28:21.526Z,1005.65
2019-02-28T07:29:21.509Z,1005.62
2019-02-28T07:30:21.500Z,1005.61
2019-02-28T07:31:24.426Z,1005.63
2019-02-28T07:32:21.509Z,1005.61
2019-02-28T07:33:21.473Z,1005.61
2019-02-28T07:34:23.845Z,1005.62
2019-02-28T07:35:21.468Z,1005.65
2019-02-28T07:36:21.447Z,1005.66
2019-02-28T07:37:21.565Z,1005.66
2019-02-28T07:38:21.416Z,1005.69
2019-02-28T07:39:21.405Z,1005.73
2019-02-28T07:40:21.389Z,1005.73
2019-02-28T07:41:26.209Z,1005.72
2019-02-28T07:42:22.477Z,1005.73
2019-02-28T07:43:21.362Z,1005.71
2019-02-28T07:44:22.293Z,1005.73
2019-02-28T07:45:21.346Z,1005.70
2019-02-28T07:46:21.332Z,1005.75
2019-02-28T07:47:21.318Z,1005.77
2019-02-28T07:48:26.835Z,1005.72
2019-02-28T07:49:22.292Z,1005.73
2019-02-28T07:50:21.327Z,1005.78
2019-02-28T07:51:22.303Z,1005.77
2019-02-28T07:52:21.264Z,1005.78
2019-02-28T07:53:21.246Z,1005.76
2019-02-28T07:54:21.277Z,1005.72
2019-02-28T07:55:21.228Z,1005.75
2019-02-28T07:56:21.219Z,1005.66
2019-02-28T07:57:22.453Z,1005.78
2019-02-28T07:58:21.198Z,1005.81
2019-02-28T07:59:21.182Z,1005.86
2019-02-28T08:00:21.211Z,1005.86
2019-02-28T08:01:21.160Z,1005.88
2019-02-28T08:02:21.168Z,1005.94
2019-02-28T08:03:21.143Z,1005.98
2019-02-28T08:04:21.163Z,1005.98
2019-02-28T08:05:21.119Z,1006.07
2019-02-28T08:06:21.104Z,1006.04
2019-02-28T08:07:21.095Z,1006.07
2019-02-28T08:08:23.373Z,1006.03
2019-02-28T08:09:22.159Z,1006.07
2019-02-28T08:10:21.059Z,1006.04
2019-02-28T08:11:21.053Z,1006.00
2019-02-28T08:12:21.035Z,1006.07
2019-02-28T08:13:21.025Z,1006.05
2019-02-28T08:14:21.026Z,1006.09
2019-02-28T08:15:22.523Z,1006.13
2019-02-28T08:16:20.998Z,1006.19
2019-02-28T08:17:20.983Z,1006.15
2019-02-28T08:18:20.971Z,1006.13
2019-02-28T08:19:22.764Z,1006.05
2019-02-28T08:20:20.984Z,1006.04
2019-02-28T08:21:20.972Z,1005.98
2019-02-28T08:22:24.346Z,1005.96
2019-02-28T08:23:20.916Z,1005.92
2019-02-28T08:24:20.916Z,1005.93
2019-02-28T08:25:20.960Z,1005.91
2019-02-28T08:26:20.885Z,1005.90
2019-02-28T08:27:20.871Z,1005.97
2019-02-28T08:28:20.871Z,1006.00
2019-02-28T08:29:20.852Z,1006.07
2019-02-28T08:30:20.844Z,1006.16
2019-02-28T08:31:20.851Z,1006.22
2019-02-28T08:32:20.826Z,1006.17
2019-02-28T08:33:20.805Z,1006.18
2019-02-28T08:34:23.987Z,1006.15
2019-02-28T08:35:20.790Z,1006.24
2019-02-28T08:36:20.820Z,1006.19
2019-02-28T08:37:22.415Z,1006.23
2019-02-28T08:38:20.752Z,1006.18
2019-02-28T08:39:20.749Z,1006.19
2019-02-28T08:40:20.736Z,1006.15
2019-02-28T08:41:22.504Z,1006.15
2019-02-28T08:42:20.717Z,1006.17
2019-02-28T08:43:27.128Z,1006.18
2019-02-28T08:44:23.885Z,1006.17
2019-02-28T08:45:20.679Z,1006.16
2019-02-28T08:46:20.675Z,1006.16
2019-02-28T08:47:21.160Z,1006.12
2019-02-28T08:48:20.706Z,1006.02
2019-02-28T08:49:20.637Z,1006.10
2019-02-28T08:50:23.336Z,1006.03
2019-02-28T08:51:21.481Z,1006.07
2019-02-28T08:52:20.601Z,1006.06
2019-02-28T08:53:20.594Z,1006.00
2019-02-28T08:54:26.132Z,1006.09
2019-02-28T08:55:28.389Z,1006.02
2019-02-28T08:56:21.561Z,1005.98
2019-02-28T08:57:22.036Z,1005.92
2019-02-28T08:58:21.535Z,1005.95
2019-02-28T08:59:22.526Z,1005.89
2019-02-28T09:00:20.562Z,1005.82
2019-02-28T09:01:20.499Z,1005.81
2019-02-28T09:02:20.523Z,1005.76
2019-02-28T09:03:20.510Z,1005.70
2019-02-28T09:04:20.465Z,1005.73
2019-02-28T09:05:25.668Z,1005.78
2019-02-28T09:06:21.444Z,1005.71
2019-02-28T09:07:20.442Z,1005.68
2019-02-28T09:08:22.491Z,1005.78
2019-02-28T09:09:20.468Z,1005.72
2019-02-28T09:10:20.404Z,1005.74
2019-02-28T09:11:20.948Z,1005.75
2019-02-28T09:12:20.376Z,1005.77
2019-02-28T09:13:20.399Z,1005.79
2019-02-28T09:14:20.358Z,1005.73
2019-02-28T09:15:20.348Z,1005.74
2019-02-28T09:16:20.343Z,1005.67
2019-02-28T09:17:20.340Z,1005.63
2019-02-28T09:18:20.361Z,1005.56
2019-02-28T09:19:20.306Z,1005.59
2019-02-28T09:20:20.292Z,1005.60
2019-02-28T09:21:20.288Z,1005.63
2019-02-28T09:22:20.268Z,1005.69
2019-02-28T09:23:20.306Z,1005.68
2019-02-28T09:24:20.255Z,1005.75
2019-02-28T09:25:22.159Z,1005.71
2019-02-28T09:26:20.999Z,1005.65
2019-02-28T09:27:20.221Z,1005.72
2019-02-28T09:28:20.905Z,1005.73
2019-02-28T09:29:21.201Z,1005.71
2019-02-28T09:30:20.186Z,1005.67
2019-02-28T09:31:20.174Z,1005.64
2019-02-28T09:32:20.167Z,1005.71
2019-02-28T09:33:23.352Z,1005.69
2019-02-28T09:34:20.185Z,1005.76
2019-02-28T09:35:20.125Z,1005.80
2019-02-28T09:36:20.679Z,1005.78
2019-02-28T09:37:20.104Z,1005.75
2019-02-28T09:38:20.100Z,1005.76
2019-02-28T09:39:20.295Z,1005.81
2019-02-28T09:40:20.111Z,1005.79
2019-02-28T09:41:20.072Z,1005.76
2019-02-28T09:42:20.056Z,1005.83
2019-02-28T09:43:20.037Z,1005.81
2019-02-28T09:44:20.035Z,1005.82
2019-02-28T09:45:20.050Z,1005.84
2019-02-28T09:46:20.049Z,1005.76
2019-02-28T09:47:19.993Z,1005.76
2019-02-28T09:48:19.988Z,1005.76
2019-02-28T09:49:19.983Z,1005.85
2019-02-28T09:50:22.489Z,1005.83
2019-02-28T09:51:19.957Z,1005.89
2019-02-28T09:52:19.946Z,1005.89
2019-02-28T09:53:19.978Z,1005.91
2019-02-28T09:54:21.352Z,1005.78
2019-02-28T09:55:19.916Z,1005.84
2019-02-28T09:56:19.931Z,1005.87
2019-02-28T09:57:19.934Z,1005.89
2019-02-28T09:58:19.874Z,1005.95
2019-02-28T09:59:19.863Z,1005.95
2019-02-28T10:00:19.853Z,1005.93
2019-02-28T10:01:21.202Z,1005.97
2019-02-28T10:02:19.831Z,1005.95
2019-02-28T10:03:19.826Z,1005.92
2019-02-28T10:04:19.809Z,1005.97
2019-02-28T10:05:19.802Z,1005.95
2019-02-28T10:06:19.822Z,1005.89
2019-02-28T10:07:19.782Z,1005.94
2019-02-28T10:08:21.713Z,1005.95
2019-02-28T10:09:19.756Z,1005.92
2019-02-28T10:10:20.798Z,1005.91
2019-02-28T10:11:21.732Z,1005.91
2019-02-28T10:12:19.728Z,1005.89
2019-02-28T10:13:19.724Z,1005.88
2019-02-28T10:14:19.700Z,1005.81
2019-02-28T10:15:19.692Z,1005.85
2019-02-28T10:16:19.774Z,1005.84
2019-02-28T10:17:19.674Z,1005.80
2019-02-28T10:18:19.660Z,1005.83
2019-02-28T10:19:19.652Z,1005.83
2019-02-28T10:20:19.641Z,1005.83
2019-02-28T10:21:19.628Z,1005.88
2019-02-28T10:22:19.646Z,1005.93
2019-02-28T10:23:21.446Z,1005.91
2019-02-28T10:24:19.598Z,1005.93
2019-02-28T10:25:19.587Z,1005.94
2019-02-28T10:26:19.575Z,1005.95
2019-02-28T10:27:19.648Z,1005.96
2019-02-28T10:28:19.556Z,1005.96
2019-02-28T10:29:19.547Z,1006.01
2019-02-28T10:30:30.544Z,1006.05
2019-02-28T10:31:22.887Z,1006.08
2019-02-28T10:32:20.550Z,1006.09
2019-02-28T10:33:19.497Z,1006.05
2019-02-28T10:34:19.484Z,1006.09
2019-02-28T10:35:19.472Z,1006.14
2019-02-28T10:36:19.473Z,1006.14
2019-02-28T10:37:22.841Z,1006.15
2019-02-28T10:38:19.504Z,1006.14
2019-02-28T10:39:19.427Z,1006.11
2019-02-28T10:40:19.421Z,1006.11
2019-02-28T10:41:19.413Z,1006.11
2019-02-28T10:42:19.395Z,1006.08
2019-02-28T10:43:19.415Z,1006.12
2019-02-28T10:44:19.374Z,1006.04
2019-02-28T10:45:19.379Z,1006.00
2019-02-28T10:46:20.243Z,1006.01
2019-02-28T10:47:19.343Z,1006.01
2019-02-28T10:48:19.361Z,1006.04
2019-02-28T10:49:21.047Z,1005.98
2019-02-28T10:50:19.307Z,1005.98
2019-02-28T10:51:19.300Z,1005.96
2019-02-28T10:52:19.287Z,1006.03
2019-02-28T10:53:19.311Z,1005.98
2019-02-28T10:54:19.295Z,1006.00
2019-02-28T10:55:22.207Z,1005.99
2019-02-28T10:56:19.239Z,1005.93
2019-02-28T10:57:19.233Z,1005.88
2019-02-28T10:58:19.219Z,1005.84
2019-02-28T10:59:21.325Z,1005.81
2019-02-28T11:00:20.204Z,1005.80
2019-02-28T11:01:19.185Z,1005.80
2019-02-28T11:02:19.914Z,1005.81
2019-02-28T11:03:19.163Z,1005.78
2019-02-28T11:04:19.162Z,1005.79
2019-02-28T11:05:19.600Z,1005.75
2019-02-28T11:06:19.177Z,1005.75
2019-02-28T11:07:19.122Z,1005.74
2019-02-28T11:08:19.363Z,1005.78
2019-02-28T11:09:21.861Z,1005.73
2019-02-28T11:10:20.090Z,1005.75
2019-02-28T11:11:19.106Z,1005.79
2019-02-28T11:12:20.424Z,1005.72
2019-02-28T11:13:19.054Z,1005.69
2019-02-28T11:14:19.043Z,1005.71
2019-02-28T11:15:19.052Z,1005.72
2019-02-28T11:16:20.500Z,1005.72
2019-02-28T11:17:19.014Z,1005.82
2019-02-28T11:18:19.002Z,1005.87
2019-02-28T11:19:19.565Z,1005.87
2019-02-28T11:20:22.164Z,1005.91
2019-02-28T11:21:18.968Z,1005.85
2019-02-28T11:22:18.990Z,1005.94
2019-02-28T11:23:18.941Z,1005.97
2019-02-28T11:24:20.630Z,1005.98
2019-02-28T11:25:18.920Z,1005.94
2019-02-28T11:26:18.922Z,1005.93
2019-02-28T11:27:20.921Z,1005.91
2019-02-28T11:28:18.887Z,1005.91
2019-02-28T11:29:18.878Z,1005.89
2019-02-28T11:30:18.865Z,1005.91
2019-02-28T11:31:19.197Z,1005.92
2019-02-28T11:32:18.901Z,1005.99
2019-02-28T11:33:18.837Z,1005.93
2019-02-28T11:34:18.876Z,1006.01
2019-02-28T11:35:20.105Z,1005.96
2019-02-28T11:36:18.800Z,1006.06
2019-02-28T11:37:18.796Z,1006.01
2019-02-28T11:38:21.500Z,1005.98
2019-02-28T11:39:18.781Z,1005.97
2019-02-28T11:40:18.759Z,1005.97
2019-02-28T11:41:19.634Z,1005.99
2019-02-28T11:42:18.735Z,1005.94
2019-02-28T11:43:18.758Z,1005.98
2019-02-28T11:44:18.714Z,1005.98
2019-02-28T11:45:21.940Z,1006.02
2019-02-28T11:46:19.692Z,1006.04
2019-02-28T11:47:18.681Z,1006.05
2019-02-28T11:48:20.264Z,1006.04
2019-02-28T11:49:18.659Z,1006.00
2019-02-28T11:50:18.652Z,1005.97
2019-02-28T11:51:18.638Z,1005.95
2019-02-28T11:52:18.625Z,1005.90
2019-02-28T11:53:19.273Z,1005.89
2019-02-28T11:54:18.605Z,1005.92
2019-02-28T11:55:20.310Z,1005.88
2019-02-28T11:56:18.583Z,1005.90
2019-02-28T11:57:20.523Z,1005.90
2019-02-28T11:58:18.566Z,1005.85
2019-02-28T11:59:18.582Z,1005.84
2019-02-28T12:00:18.563Z,1005.87
2019-02-28T12:01:18.563Z,1005.85
2019-02-28T12:02:20.125Z,1005.79
2019-02-28T12:03:18.513Z,1005.81
2019-02-28T12:04:18.506Z,1005.89
2019-02-28T12:05:18.489Z,1005.86